sensor_id;sensor_type;location;lat;lon;timestamp;P1;durP1;ratioP1;P2;durP2;ratioP2
6549;SDS011;15142;48.888;9.134;2023-05-10T00:00:23;0.67;;;0.67;;
6549;SDS011;15142;48.888;9.134;2023-05-10T00:02:52;0.43;;;0.43;;
6549;SDS011;15142;48.888;9.134;2023-05-10T00:05:21;0.50;;;0.50;;
6549;SDS011;15142;48.888;9.134;2023-05-10T00:07:50;0.40;;;0.40;;
6549;SDS011;15142;48.888;9.134;2023-05-10T00:10:18;0.37;;;0.37;;
6549;SDS011;15142;48.888;9.134;2023-05-10T00:12:47;0.30;;;0.30;;
6549;SDS011;15142;48.888;9.134;2023-05-10T00:15:18;0.50;;;0.50;;
6549;SDS011;15142;48.888;9.134;2023-05-10T00:17:47;0.50;;;0.50;;
6549;SDS011;15142;48.888;9.134;2023-05-10T00:20:15;0.37;;;0.37;;
6549;SDS011;15142;48.888;9.134;2023-05-10T00:22:44;0.30;;;0.30;;
6549;SDS011;15142;48.888;9.134;2023-05-10T00:25:13;0.50;;;0.40;;
6549;SDS011;15142;48.888;9.134;2023-05-10T00:27:41;0.30;;;0.30;;
6549;SDS011;15142;48.888;9.134;2023-05-10T00:30:10;0.53;;;0.50;;
6549;SDS011;15142;48.888;9.134;2023-05-10T00:32:42;0.40;;;0.40;;
6549;SDS011;15142;48.888;9.134;2023-05-10T00:35:13;0.30;;;0.30;;
6549;SDS011;15142;48.888;9.134;2023-05-10T00:37:41;0.30;;;0.30;;
6549;SDS011;15142;48.888;9.134;2023-05-10T00:40:11;0.63;;;0.63;;
6549;SDS011;15142;48.888;9.134;2023-05-10T00:42:43;0.40;;;0.40;;
6549;SDS011;15142;48.888;9.134;2023-05-10T00:45:12;0.40;;;0.40;;
6549;SDS011;15142;48.888;9.134;2023-05-10T00:47:43;0.50;;;0.50;;
6549;SDS011;15142;48.888;9.134;2023-05-10T00:50:11;0.53;;;0.53;;
6549;SDS011;15142;48.888;9.134;2023-05-10T00:52:40;0.60;;;0.60;;
6549;SDS011;15142;48.888;9.134;2023-05-10T00:55:11;0.50;;;0.50;;
6549;SDS011;15142;48.888;9.134;2023-05-10T00:57:40;0.33;;;0.33;;
6549;SDS011;15142;48.888;9.134;2023-05-10T01:00:09;0.77;;;0.40;;
6549;SDS011;15142;48.888;9.134;2023-05-10T01:02:45;0.50;;;0.47;;
6549;SDS011;15142;48.888;9.134;2023-05-10T01:05:15;0.50;;;0.50;;
6549;SDS011;15142;48.888;9.134;2023-05-10T01:07:44;0.50;;;0.33;;
6549;SDS011;15142;48.888;9.134;2023-05-10T01:10:13;0.60;;;0.60;;
6549;SDS011;15142;48.888;9.134;2023-05-10T01:12:43;0.67;;;0.67;;
6549;SDS011;15142;48.888;9.134;2023-05-10T01:15:14;0.70;;;0.70;;
6549;SDS011;15142;48.888;9.134;2023-05-10T01:17:47;1.47;;;1.00;;
6549;SDS011;15142;48.888;9.134;2023-05-10T01:20:16;0.93;;;0.93;;
6549;SDS011;15142;48.888;9.134;2023-05-10T01:25:56;0.93;;;0.93;;
6549;SDS011;15142;48.888;9.134;2023-05-10T01:28:42;1.03;;;1.03;;
6549;SDS011;15142;48.888;9.134;2023-05-10T01:31:30;1.00;;;0.90;;
6549;SDS011;15142;48.888;9.134;2023-05-10T01:34:16;1.20;;;1.20;;
6549;SDS011;15142;48.888;9.134;2023-05-10T01:36:48;0.80;;;0.80;;
6549;SDS011;15142;48.888;9.134;2023-05-10T01:39:23;1.13;;;1.13;;
6549;SDS011;15142;48.888;9.134;2023-05-10T01:41:54;1.00;;;1.00;;
6549;SDS011;15142;48.888;9.134;2023-05-10T01:44:29;1.30;;;1.30;;
6549;SDS011;15142;48.888;9.134;2023-05-10T01:47:08;1.17;;;1.10;;
6549;SDS011;15142;48.888;9.134;2023-05-10T01:49:43;0.90;;;0.90;;
6549;SDS011;15142;48.888;9.134;2023-05-10T01:52:15;0.77;;;0.77;;
6549;SDS011;15142;48.888;9.134;2023-05-10T01:54:48;0.60;;;0.60;;
6549;SDS011;15142;48.888;9.134;2023-05-10T01:57:21;1.10;;;1.10;;
6549;SDS011;15142;48.888;9.134;2023-05-10T01:59:53;2.10;;;1.13;;
6549;SDS011;15142;48.888;9.134;2023-05-10T02:02:23;1.93;;;1.83;;
6549;SDS011;15142;48.888;9.134;2023-05-10T02:04:56;2.57;;;0.80;;
6549;SDS011;15142;48.888;9.134;2023-05-10T02:07:26;0.90;;;0.80;;
6549;SDS011;15142;48.888;9.134;2023-05-10T02:09:57;0.93;;;0.93;;
6549;SDS011;15142;48.888;9.134;2023-05-10T02:12:26;1.27;;;1.23;;
6549;SDS011;15142;48.888;9.134;2023-05-10T02:14:56;1.00;;;1.00;;
6549;SDS011;15142;48.888;9.134;2023-05-10T02:17:27;1.13;;;1.13;;
6549;SDS011;15142;48.888;9.134;2023-05-10T02:20:00;1.53;;;1.33;;
6549;SDS011;15142;48.888;9.134;2023-05-10T02:22:29;1.10;;;1.10;;
6549;SDS011;15142;48.888;9.134;2023-05-10T02:24:59;1.90;;;1.00;;
6549;SDS011;15142;48.888;9.134;2023-05-10T02:27:29;7.30;;;1.50;;
6549;SDS011;15142;48.888;9.134;2023-05-10T02:29:59;1.13;;;1.13;;
6549;SDS011;15142;48.888;9.134;2023-05-10T02:32:28;1.07;;;1.07;;
6549;SDS011;15142;48.888;9.134;2023-05-10T02:35:00;1.70;;;1.20;;
6549;SDS011;15142;48.888;9.134;2023-05-10T02:37:30;3.50;;;1.30;;
6549;SDS011;15142;48.888;9.134;2023-05-10T02:40:03;1.20;;;1.20;;
6549;SDS011;15142;48.888;9.134;2023-05-10T02:42:35;2.30;;;1.43;;
6549;SDS011;15142;48.888;9.134;2023-05-10T02:45:07;1.60;;;1.50;;
6549;SDS011;15142;48.888;9.134;2023-05-10T02:47:41;1.20;;;1.20;;
6549;SDS011;15142;48.888;9.134;2023-05-10T02:50:13;1.20;;;1.20;;
6549;SDS011;15142;48.888;9.134;2023-05-10T02:52:42;2.43;;;1.53;;
6549;SDS011;15142;48.888;9.134;2023-05-10T02:55:15;1.53;;;1.43;;
6549;SDS011;15142;48.888;9.134;2023-05-10T02:57:48;8.20;;;1.47;;
6549;SDS011;15142;48.888;9.134;2023-05-10T03:00:20;1.13;;;1.13;;
6549;SDS011;15142;48.888;9.134;2023-05-10T03:02:49;0.97;;;0.97;;
6549;SDS011;15142;48.888;9.134;2023-05-10T03:05:20;5.70;;;1.53;;
6549;SDS011;15142;48.888;9.134;2023-05-10T03:07:49;1.70;;;1.57;;
6549;SDS011;15142;48.888;9.134;2023-05-10T03:10:18;1.20;;;1.13;;
6549;SDS011;15142;48.888;9.134;2023-05-10T03:13:01;1.33;;;1.33;;
6549;SDS011;15142;48.888;9.134;2023-05-10T03:15:42;2.80;;;1.23;;
6549;SDS011;15142;48.888;9.134;2023-05-10T03:18:21;1.47;;;1.47;;
6549;SDS011;15142;48.888;9.134;2023-05-10T03:20:55;1.63;;;1.40;;
6549;SDS011;15142;48.888;9.134;2023-05-10T03:23:30;1.50;;;1.50;;
6549;SDS011;15142;48.888;9.134;2023-05-10T03:26:03;2.23;;;2.13;;
6549;SDS011;15142;48.888;9.134;2023-05-10T03:28:33;1.80;;;1.70;;
6549;SDS011;15142;48.888;9.134;2023-05-10T03:31:03;1.70;;;1.67;;
6549;SDS011;15142;48.888;9.134;2023-05-10T03:33:34;2.00;;;1.90;;
6549;SDS011;15142;48.888;9.134;2023-05-10T03:36:06;4.57;;;2.00;;
6549;SDS011;15142;48.888;9.134;2023-05-10T03:38:35;2.53;;;2.33;;
6549;SDS011;15142;48.888;9.134;2023-05-10T03:41:04;4.03;;;2.50;;
6549;SDS011;15142;48.888;9.134;2023-05-10T03:43:33;6.90;;;2.67;;
6549;SDS011;15142;48.888;9.134;2023-05-10T03:46:02;3.00;;;2.10;;
6549;SDS011;15142;48.888;9.134;2023-05-10T03:48:32;5.03;;;1.57;;
6549;SDS011;15142;48.888;9.134;2023-05-10T03:51:01;2.67;;;2.17;;
6549;SDS011;15142;48.888;9.134;2023-05-10T03:53:32;2.47;;;2.27;;
6549;SDS011;15142;48.888;9.134;2023-05-10T03:56:01;2.47;;;2.33;;
6549;SDS011;15142;48.888;9.134;2023-05-10T03:58:30;2.70;;;2.27;;
6549;SDS011;15142;48.888;9.134;2023-05-10T04:00:59;2.57;;;2.47;;
6549;SDS011;15142;48.888;9.134;2023-05-10T04:03:28;2.20;;;2.10;;
6549;SDS011;15142;48.888;9.134;2023-05-10T04:05:59;2.13;;;1.93;;
6549;SDS011;15142;48.888;9.134;2023-05-10T04:08:29;2.33;;;2.13;;
6549;SDS011;15142;48.888;9.134;2023-05-10T04:11:07;2.87;;;2.67;;
6549;SDS011;15142;48.888;9.134;2023-05-10T04:13:37;2.30;;;2.10;;
6549;SDS011;15142;48.888;9.134;2023-05-10T04:16:06;3.30;;;3.00;;
6549;SDS011;15142;48.888;9.134;2023-05-10T04:18:35;4.17;;;3.63;;
6549;SDS011;15142;48.888;9.134;2023-05-10T04:21:10;4.90;;;3.80;;
6549;SDS011;15142;48.888;9.134;2023-05-10T04:23:39;2.63;;;2.20;;
6549;SDS011;15142;48.888;9.134;2023-05-10T04:26:11;2.40;;;2.30;;
6549;SDS011;15142;48.888;9.134;2023-05-10T04:28:40;1.77;;;1.67;;
6549;SDS011;15142;48.888;9.134;2023-05-10T04:31:09;1.60;;;1.50;;
6549;SDS011;15142;48.888;9.134;2023-05-10T04:33:38;4.43;;;2.57;;
6549;SDS011;15142;48.888;9.134;2023-05-10T04:36:06;1.50;;;1.40;;
6549;SDS011;15142;48.888;9.134;2023-05-10T04:38:35;3.40;;;1.90;;
6549;SDS011;15142;48.888;9.134;2023-05-10T04:41:04;1.37;;;1.37;;
6549;SDS011;15142;48.888;9.134;2023-05-10T04:43:36;2.13;;;1.47;;
6549;SDS011;15142;48.888;9.134;2023-05-10T04:46:05;1.80;;;1.70;;
6549;SDS011;15142;48.888;9.134;2023-05-10T04:48:34;1.97;;;1.87;;
6549;SDS011;15142;48.888;9.134;2023-05-10T04:51:03;2.03;;;1.93;;
6549;SDS011;15142;48.888;9.134;2023-05-10T04:53:31;2.40;;;2.20;;
6549;SDS011;15142;48.888;9.134;2023-05-10T04:56:00;1.90;;;1.80;;
6549;SDS011;15142;48.888;9.134;2023-05-10T04:58:29;1.97;;;1.80;;
6549;SDS011;15142;48.888;9.134;2023-05-10T05:01:06;3.10;;;1.70;;
6549;SDS011;15142;48.888;9.134;2023-05-10T05:03:35;1.53;;;1.43;;
6549;SDS011;15142;48.888;9.134;2023-05-10T05:06:05;1.60;;;1.50;;
6549;SDS011;15142;48.888;9.134;2023-05-10T05:08:34;2.07;;;1.07;;
6549;SDS011;15142;48.888;9.134;2023-05-10T05:11:03;2.10;;;2.00;;
6549;SDS011;15142;48.888;9.134;2023-05-10T05:13:31;1.37;;;1.30;;
6549;SDS011;15142;48.888;9.134;2023-05-10T05:16:00;1.90;;;1.83;;
6549;SDS011;15142;48.888;9.134;2023-05-10T05:18:32;1.60;;;1.50;;
6549;SDS011;15142;48.888;9.134;2023-05-10T05:21:00;2.80;;;1.50;;
6549;SDS011;15142;48.888;9.134;2023-05-10T05:23:29;1.57;;;1.43;;
6549;SDS011;15142;48.888;9.134;2023-05-10T05:25:58;2.83;;;1.53;;
6549;SDS011;15142;48.888;9.134;2023-05-10T05:28:26;1.47;;;1.47;;
6549;SDS011;15142;48.888;9.134;2023-05-10T05:30:58;1.60;;;1.50;;
6549;SDS011;15142;48.888;9.134;2023-05-10T05:33:26;1.60;;;1.50;;
6549;SDS011;15142;48.888;9.134;2023-05-10T05:35:59;1.27;;;1.20;;
6549;SDS011;15142;48.888;9.134;2023-05-10T05:38:28;3.27;;;1.67;;
6549;SDS011;15142;48.888;9.134;2023-05-10T05:40:57;2.50;;;2.07;;
6549;SDS011;15142;48.888;9.134;2023-05-10T05:43:29;2.37;;;2.27;;
6549;SDS011;15142;48.888;9.134;2023-05-10T05:45:57;3.40;;;1.90;;
6549;SDS011;15142;48.888;9.134;2023-05-10T05:48:26;1.70;;;1.60;;
6549;SDS011;15142;48.888;9.134;2023-05-10T05:50:54;2.00;;;1.90;;
6549;SDS011;15142;48.888;9.134;2023-05-10T05:53:26;10.27;;;2.00;;
6549;SDS011;15142;48.888;9.134;2023-05-10T05:55:56;1.73;;;1.63;;
6549;SDS011;15142;48.888;9.134;2023-05-10T05:58:25;4.03;;;1.90;;
6549;SDS011;15142;48.888;9.134;2023-05-10T06:00:54;1.50;;;1.40;;
6549;SDS011;15142;48.888;9.134;2023-05-10T06:03:22;1.67;;;1.53;;
6549;SDS011;15142;48.888;9.134;2023-05-10T06:05:51;2.43;;;2.13;;
6549;SDS011;15142;48.888;9.134;2023-05-10T06:08:19;2.80;;;2.13;;
6549;SDS011;15142;48.888;9.134;2023-05-10T06:10:51;2.20;;;2.00;;
6549;SDS011;15142;48.888;9.134;2023-05-10T06:13:19;2.70;;;2.50;;
6549;SDS011;15142;48.888;9.134;2023-05-10T06:15:48;2.60;;;2.40;;
6549;SDS011;15142;48.888;9.134;2023-05-10T06:18:16;2.67;;;2.27;;
6549;SDS011;15142;48.888;9.134;2023-05-10T06:20:45;1.90;;;1.73;;
6549;SDS011;15142;48.888;9.134;2023-05-10T06:23:13;2.23;;;2.03;;
6549;SDS011;15142;48.888;9.134;2023-05-10T06:25:42;2.83;;;2.43;;
6549;SDS011;15142;48.888;9.134;2023-05-10T06:28:13;6.67;;;2.57;;
6549;SDS011;15142;48.888;9.134;2023-05-10T06:30:42;1.80;;;1.67;;
6549;SDS011;15142;48.888;9.134;2023-05-10T06:33:11;2.43;;;2.13;;
6549;SDS011;15142;48.888;9.134;2023-05-10T06:35:39;1.10;;;1.10;;
6549;SDS011;15142;48.888;9.134;2023-05-10T06:38:07;2.60;;;1.60;;
6549;SDS011;15142;48.888;9.134;2023-05-10T06:40:36;3.80;;;2.00;;
6549;SDS011;15142;48.888;9.134;2023-05-10T06:43:04;1.57;;;1.47;;
6549;SDS011;15142;48.888;9.134;2023-05-10T06:45:36;1.83;;;1.73;;
6549;SDS011;15142;48.888;9.134;2023-05-10T06:48:05;1.43;;;1.43;;
6549;SDS011;15142;48.888;9.134;2023-05-10T06:50:33;1.17;;;1.17;;
6549;SDS011;15142;48.888;9.134;2023-05-10T06:53:02;3.60;;;1.53;;
6549;SDS011;15142;48.888;9.134;2023-05-10T06:55:30;1.60;;;1.50;;
6549;SDS011;15142;48.888;9.134;2023-05-10T06:57:59;2.70;;;2.30;;
6549;SDS011;15142;48.888;9.134;2023-05-10T07:00:28;2.10;;;1.23;;
6549;SDS011;15142;48.888;9.134;2023-05-10T07:02:59;1.30;;;1.20;;
6549;SDS011;15142;48.888;9.134;2023-05-10T07:05:28;2.10;;;1.43;;
6549;SDS011;15142;48.888;9.134;2023-05-10T07:07:57;1.27;;;1.20;;
6549;SDS011;15142;48.888;9.134;2023-05-10T07:10:26;1.80;;;1.70;;
6549;SDS011;15142;48.888;9.134;2023-05-10T07:12:55;1.50;;;1.40;;
6549;SDS011;15142;48.888;9.134;2023-05-10T07:15:23;1.03;;;1.03;;
6549;SDS011;15142;48.888;9.134;2023-05-10T07:17:52;14.23;;;1.80;;
6549;SDS011;15142;48.888;9.134;2023-05-10T07:20:23;11.03;;;2.80;;
6549;SDS011;15142;48.888;9.134;2023-05-10T07:22:52;3.00;;;2.00;;
6549;SDS011;15142;48.888;9.134;2023-05-10T07:25:20;1.03;;;0.80;;
6549;SDS011;15142;48.888;9.134;2023-05-10T07:27:49;4.83;;;1.77;;
6549;SDS011;15142;48.888;9.134;2023-05-10T07:30:18;1.50;;;1.40;;
6549;SDS011;15142;48.888;9.134;2023-05-10T07:32:46;1.27;;;1.20;;
6549;SDS011;15142;48.888;9.134;2023-05-10T07:35:15;0.90;;;0.90;;
6549;SDS011;15142;48.888;9.134;2023-05-10T07:37:46;1.10;;;1.10;;
6549;SDS011;15142;48.888;9.134;2023-05-10T07:40:15;5.70;;;1.20;;
6549;SDS011;15142;48.888;9.134;2023-05-10T07:42:43;0.50;;;0.50;;
6549;SDS011;15142;48.888;9.134;2023-05-10T07:45:11;1.00;;;1.00;;
6549;SDS011;15142;48.888;9.134;2023-05-10T07:47:40;0.87;;;0.87;;
6549;SDS011;15142;48.888;9.134;2023-05-10T07:50:09;1.37;;;0.67;;
6549;SDS011;15142;48.888;9.134;2023-05-10T07:52:38;0.77;;;0.77;;
6549;SDS011;15142;48.888;9.134;2023-05-10T07:55:09;0.63;;;0.63;;
6549;SDS011;15142;48.888;9.134;2023-05-10T07:57:38;0.90;;;0.90;;
6549;SDS011;15142;48.888;9.134;2023-05-10T08:00:08;1.67;;;1.40;;
6549;SDS011;15142;48.888;9.134;2023-05-10T08:02:40;2.73;;;1.03;;
6549;SDS011;15142;48.888;9.134;2023-05-10T08:05:09;1.07;;;0.60;;
6549;SDS011;15142;48.888;9.134;2023-05-10T08:07:37;0.93;;;0.93;;
6549;SDS011;15142;48.888;9.134;2023-05-10T08:10:07;1.10;;;1.00;;
6549;SDS011;15142;48.888;9.134;2023-05-10T08:12:39;0.60;;;0.40;;
6549;SDS011;15142;48.888;9.134;2023-05-10T08:15:08;1.07;;;0.50;;
6549;SDS011;15142;48.888;9.134;2023-05-10T08:17:37;2.20;;;0.50;;
6549;SDS011;15142;48.888;9.134;2023-05-10T08:20:06;6.97;;;0.60;;
6549;SDS011;15142;48.888;9.134;2023-05-10T08:22:37;2.37;;;2.17;;
6549;SDS011;15142;48.888;9.134;2023-05-10T08:25:07;0.60;;;0.60;;
6549;SDS011;15142;48.888;9.134;2023-05-10T08:27:38;4.33;;;0.60;;
6549;SDS011;15142;48.888;9.134;2023-05-10T08:30:07;0.57;;;0.57;;
6549;SDS011;15142;48.888;9.134;2023-05-10T08:32:37;1.20;;;0.50;;
6549;SDS011;15142;48.888;9.134;2023-05-10T08:35:06;0.40;;;0.40;;
6549;SDS011;15142;48.888;9.134;2023-05-10T08:37:35;0.47;;;0.47;;
6549;SDS011;15142;48.888;9.134;2023-05-10T08:40:04;0.87;;;0.77;;
6549;SDS011;15142;48.888;9.134;2023-05-10T08:42:36;0.50;;;0.50;;
6549;SDS011;15142;48.888;9.134;2023-05-10T08:45:07;0.50;;;0.50;;
6549;SDS011;15142;48.888;9.134;2023-05-10T08:47:37;0.50;;;0.50;;
6549;SDS011;15142;48.888;9.134;2023-05-10T08:50:07;0.40;;;0.40;;
6549;SDS011;15142;48.888;9.134;2023-05-10T08:52:37;0.70;;;0.70;;
6549;SDS011;15142;48.888;9.134;2023-05-10T08:55:08;0.50;;;0.43;;
6549;SDS011;15142;48.888;9.134;2023-05-10T08:57:40;0.40;;;0.40;;
6549;SDS011;15142;48.888;9.134;2023-05-10T09:00:09;0.60;;;0.60;;
6549;SDS011;15142;48.888;9.134;2023-05-10T09:02:39;0.60;;;0.60;;
6549;SDS011;15142;48.888;9.134;2023-05-10T09:05:11;0.30;;;0.30;;
6549;SDS011;15142;48.888;9.134;2023-05-10T09:07:41;0.40;;;0.40;;
6549;SDS011;15142;48.888;9.134;2023-05-10T09:10:10;0.57;;;0.57;;
6549;SDS011;15142;48.888;9.134;2023-05-10T09:12:41;0.70;;;0.70;;
6549;SDS011;15142;48.888;9.134;2023-05-10T09:15:12;0.87;;;0.70;;
6549;SDS011;15142;48.888;9.134;2023-05-10T09:17:45;2.20;;;0.40;;
6549;SDS011;15142;48.888;9.134;2023-05-10T09:20:14;0.67;;;0.67;;
6549;SDS011;15142;48.888;9.134;2023-05-10T09:22:42;0.63;;;0.60;;
6549;SDS011;15142;48.888;9.134;2023-05-10T09:25:12;8.20;;;0.70;;
6549;SDS011;15142;48.888;9.134;2023-05-10T09:27:44;0.97;;;0.70;;
6549;SDS011;15142;48.888;9.134;2023-05-10T09:30:17;0.43;;;0.43;;
6549;SDS011;15142;48.888;9.134;2023-05-10T09:32:53;0.60;;;0.50;;
6549;SDS011;15142;48.888;9.134;2023-05-10T09:35:22;1.40;;;0.67;;
6549;SDS011;15142;48.888;9.134;2023-05-10T09:37:52;1.40;;;0.73;;
6549;SDS011;15142;48.888;9.134;2023-05-10T09:40:23;1.63;;;0.77;;
6549;SDS011;15142;48.888;9.134;2023-05-10T09:42:56;1.43;;;0.67;;
6549;SDS011;15142;48.888;9.134;2023-05-10T09:45:26;0.50;;;0.50;;
6549;SDS011;15142;48.888;9.134;2023-05-10T09:47:55;0.60;;;0.60;;
6549;SDS011;15142;48.888;9.134;2023-05-10T09:50:25;0.60;;;0.60;;
6549;SDS011;15142;48.888;9.134;2023-05-10T09:52:55;0.60;;;0.60;;
6549;SDS011;15142;48.888;9.134;2023-05-10T09:55:25;0.50;;;0.50;;
6549;SDS011;15142;48.888;9.134;2023-05-10T09:58:08;0.40;;;0.40;;
6549;SDS011;15142;48.888;9.134;2023-05-10T10:00:38;4.00;;;1.00;;
6549;SDS011;15142;48.888;9.134;2023-05-10T10:03:12;1.47;;;1.37;;
6549;SDS011;15142;48.888;9.134;2023-05-10T10:05:42;0.40;;;0.40;;
6549;SDS011;15142;48.888;9.134;2023-05-10T10:08:12;0.53;;;0.40;;
6549;SDS011;15142;48.888;9.134;2023-05-10T10:10:42;0.43;;;0.43;;
6549;SDS011;15142;48.888;9.134;2023-05-10T10:13:14;0.50;;;0.50;;
6549;SDS011;15142;48.888;9.134;2023-05-10T10:15:43;1.00;;;0.70;;
6549;SDS011;15142;48.888;9.134;2023-05-10T10:18:16;0.40;;;0.40;;
6549;SDS011;15142;48.888;9.134;2023-05-10T10:20:49;0.67;;;0.60;;
6549;SDS011;15142;48.888;9.134;2023-05-10T10:23:18;0.50;;;0.50;;
6549;SDS011;15142;48.888;9.134;2023-05-10T10:25:46;0.60;;;0.60;;
6549;SDS011;15142;48.888;9.134;2023-05-10T10:28:23;1.00;;;1.00;;
6549;SDS011;15142;48.888;9.134;2023-05-10T10:31:01;0.67;;;0.67;;
6549;SDS011;15142;48.888;9.134;2023-05-10T10:33:49;0.60;;;0.60;;
6549;SDS011;15142;48.888;9.134;2023-05-10T10:36:23;0.70;;;0.57;;
6549;SDS011;15142;48.888;9.134;2023-05-10T10:38:56;0.73;;;0.73;;
6549;SDS011;15142;48.888;9.134;2023-05-10T10:41:29;3.30;;;0.73;;
6549;SDS011;15142;48.888;9.134;2023-05-10T10:47:02;0.40;;;0.40;;
6549;SDS011;15142;48.888;9.134;2023-05-10T10:49:37;1.80;;;0.80;;
6549;SDS011;15142;48.888;9.134;2023-05-10T10:52:14;0.77;;;0.77;;
6549;SDS011;15142;48.888;9.134;2023-05-10T10:54:53;0.63;;;0.53;;
6549;SDS011;15142;48.888;9.134;2023-05-10T10:57:27;0.50;;;0.50;;
6549;SDS011;15142;48.888;9.134;2023-05-10T11:02:59;0.70;;;0.53;;
6549;SDS011;15142;48.888;9.134;2023-05-10T11:05:38;0.40;;;0.40;;
6549;SDS011;15142;48.888;9.134;2023-05-10T11:08:11;0.60;;;0.60;;
6549;SDS011;15142;48.888;9.134;2023-05-10T11:10:51;1.70;;;0.50;;
6549;SDS011;15142;48.888;9.134;2023-05-10T11:13:27;1.03;;;1.03;;
6549;SDS011;15142;48.888;9.134;2023-05-10T11:16:09;1.07;;;0.90;;
6549;SDS011;15142;48.888;9.134;2023-05-10T11:18:51;1.10;;;0.47;;
6549;SDS011;15142;48.888;9.134;2023-05-10T11:21:21;3.13;;;0.70;;
6549;SDS011;15142;48.888;9.134;2023-05-10T11:23:51;0.40;;;0.40;;
6549;SDS011;15142;48.888;9.134;2023-05-10T11:26:21;1.50;;;0.60;;
6549;SDS011;15142;48.888;9.134;2023-05-10T11:28:52;1.00;;;0.50;;
6549;SDS011;15142;48.888;9.134;2023-05-10T11:31:24;1.03;;;0.80;;
6549;SDS011;15142;48.888;9.134;2023-05-10T11:33:54;2.07;;;0.70;;
6549;SDS011;15142;48.888;9.134;2023-05-10T11:36:25;1.97;;;0.70;;
6549;SDS011;15142;48.888;9.134;2023-05-10T11:38:56;0.80;;;0.80;;
6549;SDS011;15142;48.888;9.134;2023-05-10T11:41:25;0.73;;;0.67;;
6549;SDS011;15142;48.888;9.134;2023-05-10T11:43:55;0.90;;;0.87;;
6549;SDS011;15142;48.888;9.134;2023-05-10T11:46:27;4.97;;;0.70;;
6549;SDS011;15142;48.888;9.134;2023-05-10T11:48:57;3.70;;;1.20;;
6549;SDS011;15142;48.888;9.134;2023-05-10T11:51:32;2.30;;;1.50;;
6549;SDS011;15142;48.888;9.134;2023-05-10T11:54:05;1.40;;;1.30;;
6549;SDS011;15142;48.888;9.134;2023-05-10T11:56:35;0.90;;;0.90;;
6549;SDS011;15142;48.888;9.134;2023-05-10T11:59:04;0.87;;;0.87;;
6549;SDS011;15142;48.888;9.134;2023-05-10T12:01:35;0.67;;;0.50;;
6549;SDS011;15142;48.888;9.134;2023-05-10T12:04:05;0.80;;;0.80;;
6549;SDS011;15142;48.888;9.134;2023-05-10T12:06:36;1.50;;;1.00;;
6549;SDS011;15142;48.888;9.134;2023-05-10T12:09:08;6.83;;;1.30;;
6549;SDS011;15142;48.888;9.134;2023-05-10T12:11:37;1.07;;;0.90;;
6549;SDS011;15142;48.888;9.134;2023-05-10T12:14:08;1.03;;;1.03;;
6549;SDS011;15142;48.888;9.134;2023-05-10T12:16:39;1.07;;;0.90;;
6549;SDS011;15142;48.888;9.134;2023-05-10T12:19:08;1.13;;;0.90;;
6549;SDS011;15142;48.888;9.134;2023-05-10T12:21:37;3.30;;;1.17;;
6549;SDS011;15142;48.888;9.134;2023-05-10T12:24:07;0.73;;;0.60;;
6549;SDS011;15142;48.888;9.134;2023-05-10T12:26:36;0.60;;;0.60;;
6549;SDS011;15142;48.888;9.134;2023-05-10T12:29:11;1.70;;;0.70;;
6549;SDS011;15142;48.888;9.134;2023-05-10T12:31:53;1.43;;;0.93;;
6549;SDS011;15142;48.888;9.134;2023-05-10T12:34:24;0.70;;;0.60;;
6549;SDS011;15142;48.888;9.134;2023-05-10T12:36:53;0.70;;;0.70;;
6549;SDS011;15142;48.888;9.134;2023-05-10T12:39:22;0.50;;;0.50;;
6549;SDS011;15142;48.888;9.134;2023-05-10T12:41:51;1.43;;;0.80;;
6549;SDS011;15142;48.888;9.134;2023-05-10T12:44:20;2.50;;;1.00;;
6549;SDS011;15142;48.888;9.134;2023-05-10T12:46:49;0.90;;;0.90;;
6549;SDS011;15142;48.888;9.134;2023-05-10T12:49:20;0.60;;;0.60;;
6549;SDS011;15142;48.888;9.134;2023-05-10T12:51:48;0.50;;;0.50;;
6549;SDS011;15142;48.888;9.134;2023-05-10T12:54:17;0.97;;;0.80;;
6549;SDS011;15142;48.888;9.134;2023-05-10T12:56:45;0.83;;;0.60;;
6549;SDS011;15142;48.888;9.134;2023-05-10T12:59:14;0.90;;;0.90;;
6549;SDS011;15142;48.888;9.134;2023-05-10T13:01:43;1.43;;;0.70;;
6549;SDS011;15142;48.888;9.134;2023-05-10T13:04:11;1.40;;;1.20;;
6549;SDS011;15142;48.888;9.134;2023-05-10T13:06:42;2.10;;;0.60;;
6549;SDS011;15142;48.888;9.134;2023-05-10T13:09:11;0.50;;;0.50;;
6549;SDS011;15142;48.888;9.134;2023-05-10T13:11:41;4.63;;;0.50;;
6549;SDS011;15142;48.888;9.134;2023-05-10T13:14:10;0.60;;;0.60;;
6549;SDS011;15142;48.888;9.134;2023-05-10T13:16:39;0.60;;;0.60;;
6549;SDS011;15142;48.888;9.134;2023-05-10T13:19:08;1.80;;;0.80;;
6549;SDS011;15142;48.888;9.134;2023-05-10T13:21:36;0.70;;;0.50;;
6549;SDS011;15142;48.888;9.134;2023-05-10T13:24:09;0.60;;;0.60;;
6549;SDS011;15142;48.888;9.134;2023-05-10T13:26:39;3.33;;;1.17;;
6549;SDS011;15142;48.888;9.134;2023-05-10T13:29:07;1.80;;;0.77;;
6549;SDS011;15142;48.888;9.134;2023-05-10T13:31:36;0.97;;;0.70;;
6549;SDS011;15142;48.888;9.134;2023-05-10T13:34:05;2.33;;;0.67;;
6549;SDS011;15142;48.888;9.134;2023-05-10T13:36:34;1.70;;;0.70;;
6549;SDS011;15142;48.888;9.134;2023-05-10T13:39:03;6.33;;;0.90;;
6549;SDS011;15142;48.888;9.134;2023-05-10T13:41:34;0.60;;;0.60;;
6549;SDS011;15142;48.888;9.134;2023-05-10T13:44:03;0.83;;;0.70;;
6549;SDS011;15142;48.888;9.134;2023-05-10T13:46:31;0.63;;;0.40;;
6549;SDS011;15142;48.888;9.134;2023-05-10T13:49:00;0.40;;;0.40;;
6549;SDS011;15142;48.888;9.134;2023-05-10T13:51:29;2.97;;;0.70;;
6549;SDS011;15142;48.888;9.134;2023-05-10T13:53:58;0.63;;;0.63;;
6549;SDS011;15142;48.888;9.134;2023-05-10T13:56:26;1.13;;;0.80;;
6549;SDS011;15142;48.888;9.134;2023-05-10T13:58:58;1.43;;;0.80;;
6549;SDS011;15142;48.888;9.134;2023-05-10T14:01:27;3.13;;;0.80;;
6549;SDS011;15142;48.888;9.134;2023-05-10T14:03:56;0.50;;;0.50;;
6549;SDS011;15142;48.888;9.134;2023-05-10T14:06:25;0.57;;;0.50;;
6549;SDS011;15142;48.888;9.134;2023-05-10T14:08:53;1.30;;;1.20;;
6549;SDS011;15142;48.888;9.134;2023-05-10T14:11:22;5.20;;;0.50;;
6549;SDS011;15142;48.888;9.134;2023-05-10T14:13:51;2.47;;;0.70;;
6549;SDS011;15142;48.888;9.134;2023-05-10T14:16:22;0.77;;;0.77;;
6549;SDS011;15142;48.888;9.134;2023-05-10T14:18:51;0.57;;;0.40;;
6549;SDS011;15142;48.888;9.134;2023-05-10T14:21:20;1.20;;;1.00;;
6549;SDS011;15142;48.888;9.134;2023-05-10T14:23:48;0.77;;;0.60;;
6549;SDS011;15142;48.888;9.134;2023-05-10T14:26:17;1.40;;;0.40;;
6549;SDS011;15142;48.888;9.134;2023-05-10T14:28:46;1.83;;;1.00;;
6549;SDS011;15142;48.888;9.134;2023-05-10T14:31:14;0.87;;;0.60;;
6549;SDS011;15142;48.888;9.134;2023-05-10T14:33:47;0.50;;;0.50;;
6549;SDS011;15142;48.888;9.134;2023-05-10T14:36:15;0.60;;;0.60;;
6549;SDS011;15142;48.888;9.134;2023-05-10T14:38:45;1.67;;;0.50;;
6549;SDS011;15142;48.888;9.134;2023-05-10T14:41:14;1.23;;;0.73;;
6549;SDS011;15142;48.888;9.134;2023-05-10T14:43:43;2.43;;;0.67;;
6549;SDS011;15142;48.888;9.134;2023-05-10T14:46:12;0.80;;;0.80;;
6549;SDS011;15142;48.888;9.134;2023-05-10T14:48:41;3.40;;;0.87;;
6549;SDS011;15142;48.888;9.134;2023-05-10T14:51:12;0.57;;;0.50;;
6549;SDS011;15142;48.888;9.134;2023-05-10T14:53:41;0.30;;;0.30;;
6549;SDS011;15142;48.888;9.134;2023-05-10T14:56:09;1.27;;;0.50;;
6549;SDS011;15142;48.888;9.134;2023-05-10T14:58:38;0.50;;;0.50;;
6549;SDS011;15142;48.888;9.134;2023-05-10T15:01:06;0.87;;;0.57;;
6549;SDS011;15142;48.888;9.134;2023-05-10T15:03:35;2.00;;;0.83;;
6549;SDS011;15142;48.888;9.134;2023-05-10T15:06:04;2.40;;;0.70;;
6549;SDS011;15142;48.888;9.134;2023-05-10T15:08:35;0.80;;;0.67;;
6549;SDS011;15142;48.888;9.134;2023-05-10T15:11:04;2.13;;;0.60;;
6549;SDS011;15142;48.888;9.134;2023-05-10T15:13:32;0.77;;;0.50;;
6549;SDS011;15142;48.888;9.134;2023-05-10T15:16:01;4.00;;;0.70;;
6549;SDS011;15142;48.888;9.134;2023-05-10T15:18:30;0.60;;;0.60;;
6549;SDS011;15142;48.888;9.134;2023-05-10T15:20:59;0.60;;;0.60;;
6549;SDS011;15142;48.888;9.134;2023-05-10T15:23:27;0.40;;;0.40;;
6549;SDS011;15142;48.888;9.134;2023-05-10T15:25:59;0.50;;;0.50;;
6549;SDS011;15142;48.888;9.134;2023-05-10T15:28:28;0.40;;;0.40;;